Terminal Aerodrome Forecast
Issued by NWS Memphis, TN

Home | Current Version | Previous Version | Text Only | Print | Product List | Glossary On
Versions: 1 2 3 4 5 6 7 8 9 10 11 12 13 14 15
000
FTUS44 KMEG 031729
TAFMKL
TAF
KMKL 031729Z 0318/0418 04003KT P6SM SCT045
     FM040000 VRB02KT P6SM SKC
     FM040600 00000KT 6SM BR SKC
      TEMPO 0408/0412 2SM BR
     FM041300 VRB03KT P6SM FEW040=

USA.gov is the U.S. government's official web portal to all federal, state and local government web resources and services.